Time;durP1;ratioP1;P1;durP2;ratioP2;P2;SDS_P1;SDS_P2;PMS_P1;PMS_P2;Temp;Humidity;BMP_temperature;BMP_pressure;BME280_temperature;BME280_humidity;BME280_pressure;Samples;Min_cycle;Max_cycle;Signal;HPM_P1;HPM_P2
2023/08/30 00:00:10;;;;;;;11.88;5.38;;;;;;;14.50;84.80;100879.03;6071505;19;20010;-70
2023/08/30 00:02:16;;;;;;;14.00;5.43;;;;;;;14.49;84.63;100883.47;6054944;19;20023;-71
2023/08/30 00:04:25;;;;;;;16.15;5.90;;;;;;;14.50;85.12;100879.88;6073024;19;20010;-68
2023/08/30 00:06:31;;;;;;;13.13;6.15;;;;;;;14.50;85.50;100879.03;6009608;19;20250;-69
2023/08/30 00:08:41;;;;;;;13.85;5.80;;;;;;;14.53;85.77;100883.34;6047958;19;20241;-70
2023/08/30 00:10:55;;;;;;;12.50;5.85;;;;;;;14.59;85.44;100880.38;6075452;19;20018;-72
2023/08/30 00:13:05;;;;;;;16.17;5.95;;;;;;;14.59;85.91;100875.06;6054822;19;20261;-70
2023/08/30 00:15:11;;;;;;;17.02;7.00;;;;;;;14.60;85.61;100879.41;6075371;19;20014;-70
2023/08/30 00:17:16;;;;;;;15.50;6.07;;;;;;;14.59;86.17;100875.94;6052150;19;20074;-71
2023/08/30 00:19:25;;;;;;;15.20;6.40;;;;;;;14.67;86.15;100871.03;6073910;19;19998;-69
2023/08/30 00:21:30;;;;;;;13.20;6.03;;;;;;;14.64;85.86;100862.41;6074534;19;20010;-70
2023/08/30 00:23:35;;;;;;;13.65;5.47;;;;;;;14.63;85.80;100863.38;6055598;19;20007;-69
2023/08/30 00:25:41;;;;;;;13.93;6.18;;;;;;;14.63;85.87;100858.06;6073661;19;20381;-70
2023/08/30 00:27:47;;;;;;;15.48;6.15;;;;;;;14.60;86.13;100866.19;6073707;19;20283;-69
2023/08/30 00:29:55;;;;;;;15.43;6.05;;;;;;;14.63;86.43;100858.06;6072990;19;20015;-68
2023/08/30 00:31:57;;;;;;;15.95;6.28;;;;;;;14.64;86.58;100858.00;6071552;19;20261;-68
2023/08/30 00:34:02;;;;;;;13.77;5.70;;;;;;;14.65;86.19;100851.75;6070495;19;20011;-68
2023/08/30 00:36:07;;;;;;;16.85;6.03;;;;;;;14.68;85.91;100851.56;6070112;19;20017;-68
2023/08/30 00:38:12;;;;;;;14.43;5.65;;;;;;;14.69;85.86;100852.44;6072886;19;20204;-68
2023/08/30 00:40:19;;;;;;;15.25;6.50;;;;;;;14.72;85.48;100852.28;6070030;19;20013;-69
2023/08/30 00:42:24;;;;;;;14.77;6.30;;;;;;;14.77;85.51;100849.34;6068098;19;20778;-69
2023/08/30 00:44:29;;;;;;;18.15;6.93;;;;;;;14.79;85.06;100848.31;6056944;19;20531;-69
2023/08/30 00:46:37;;;;;;;15.52;6.38;;;;;;;14.79;85.38;100843.03;6061047;19;20314;-69
2023/08/30 00:48:43;;;;;;;14.23;5.70;;;;;;;14.78;85.49;100848.41;6070516;19;20251;-69
2023/08/30 00:50:48;;;;;;;14.95;6.35;;;;;;;14.84;84.43;100840.97;6073514;19;20042;-68
2023/08/30 00:52:51;;;;;;;16.67;6.20;;;;;;;14.83;84.53;100847.22;6069872;19;20431;-68
2023/08/30 00:54:58;;;;;;;14.32;6.38;;;;;;;14.85;84.66;100839.16;6054122;19;20023;-68
2023/08/30 00:57:03;;;;;;;15.70;7.18;;;;;;;14.84;84.44;100840.97;6073933;19;20014;-68
2023/08/30 00:59:09;;;;;;;18.58;6.95;;;;;;;14.88;84.46;100841.66;6076647;19;20017;-69
2023/08/30 01:01:13;;;;;;;19.67;6.90;;;;;;;14.90;84.51;100840.63;6072824;19;20125;-69
2023/08/30 01:03:22;;;;;;;17.50;6.60;;;;;;;14.93;84.29;100842.25;6069964;19;20432;-69
2023/08/30 01:05:28;;;;;;;16.05;7.18;;;;;;;14.90;84.51;100837.09;6066462;19;20045;-69
2023/08/30 01:07:35;;;;;;;16.30;6.50;;;;;;;14.93;84.46;100834.31;6063413;19;20621;-69
2023/08/30 01:09:40;;;;;;;16.90;7.18;;;;;;;14.95;84.97;100831.56;6047739;19;20772;-69
2023/08/30 01:11:51;;;;;;;19.50;7.38;;;;;;;14.97;84.60;100829.66;6070181;19;20172;-70
2023/08/30 01:14:01;;;;;;;14.70;6.90;;;;;;;14.92;85.10;100828.13;6056821;19;20015;-70
2023/08/30 01:16:16;;;;;;;17.85;7.45;;;;;;;14.90;85.05;100827.41;6073232;19;20180;-69
2023/08/30 01:18:46;;;;;;;19.33;7.22;;;;;;;14.90;85.10;100819.47;6057810;19;20010;-70
2023/08/30 01:21:11;;;;;;;19.38;7.28;;;;;;;14.88;85.40;100817.84;6044675;19;20444;-68
2023/08/30 01:23:28;;;;;;;16.88;7.80;;;;;;;14.89;85.88;100824.81;6070882;19;20006;-68
2023/08/30 01:25:46;;;;;;;17.30;7.50;;;;;;;14.87;86.13;100810.81;6067340;19;20370;-69
2023/08/30 01:27:55;;;;;;;21.60;7.72;;;;;;;14.83;86.65;100807.53;6052238;19;20235;-68
2023/08/30 01:30:01;;;;;;;15.20;6.95;;;;;;;14.86;86.12;100807.34;6046716;19;20010;-69
2023/08/30 01:32:07;;;;;;;15.02;6.68;;;;;;;14.88;86.31;100805.47;6068416;19;20089;-69
2023/08/30 01:34:13;;;;;;;20.20;6.10;;;;;;;14.89;86.40;100811.59;6065484;19;20299;-69
2023/08/30 01:36:19;;;;;;;19.77;6.90;;;;;;;14.91;86.47;100815.84;6049087;19;20304;-70
2023/08/30 01:38:26;;;;;;;19.15;8.48;;;;;;;14.90;86.38;100816.81;6050799;19;20014;-71
2023/08/30 01:40:33;;;;;;;26.83;8.93;;;;;;;14.91;86.68;100812.38;6047321;19;20011;-69
2023/08/30 01:42:39;;;;;;;15.77;7.28;;;;;;;14.92;86.91;100812.25;6049858;19;20702;-70
2023/08/30 01:44:47;;;;;;;22.52;8.77;;;;;;;14.97;86.65;100808.50;6053032;19;20007;-70
2023/08/30 01:46:52;;;;;;;20.90;8.38;;;;;;;14.96;87.21;100805.00;6077925;19;20011;-70
2023/08/30 01:48:59;;;;;;;19.55;8.23;;;;;;;14.98;87.05;100804.91;6078172;19;20514;-72
2023/08/30 01:51:04;;;;;;;17.67;7.00;;;;;;;14.98;87.04;100804.91;6079874;19;20078;-69
2023/08/30 01:53:11;;;;;;;21.83;8.27;;;;;;;14.99;87.06;100802.19;6054347;19;20010;-69
2023/08/30 01:55:17;;;;;;;22.45;8.00;;;;;;;14.98;87.40;100804.91;6074223;19;20543;-69
2023/08/30 01:57:22;;;;;;;20.77;8.10;;;;;;;15.00;87.17;100803.03;6078700;19;20027;-69
2023/08/30 01:59:29;;;;;;;19.35;8.27;;;;;;;14.99;87.17;100796.88;6058839;19;20046;-69
2023/08/30 02:01:37;;;;;;;20.05;8.30;;;;;;;15.01;87.25;100799.41;6079568;19;20014;-70
2023/08/30 02:03:42;;;;;;;23.50;8.25;;;;;;;15.03;87.01;100794.91;6079879;19;20400;-70
2023/08/30 02:05:57;;;;;;;20.15;8.15;;;;;;;14.98;87.46;100792.53;6082039;19;20007;-71
2023/08/30 02:08:12;;;;;;;24.05;9.57;;;;;;;14.96;87.35;100789.13;6063121;19;20010;-69
2023/08/30 02:10:25;;;;;;;22.95;8.65;;;;;;;14.96;87.31;100783.84;6081258;19;20074;-70
2023/08/30 02:12:37;;;;;;;22.45;9.40;;;;;;;14.95;87.55;100787.41;6081022;19;20011;-69
2023/08/30 02:14:47;;;;;;;25.23;9.52;;;;;;;14.91;87.92;100784.09;6082488;19;20137;-70
2023/08/30 02:17:00;;;;;;;24.15;9.05;;;;;;;14.92;87.78;100785.78;6062533;19;20010;-69
2023/08/30 02:19:05;;;;;;;;;;;;;;;14.98;87.41;100784.59;6077477;19;20657;-69
2023/08/30 02:21:10;;;;;;;23.90;9.18;;;;;;;14.96;87.77;100775.06;6076234;19;19929;-70
2023/08/30 02:23:15;;;;;;;21.45;8.73;;;;;;;14.98;87.40;100773.16;6058662;19;20522;-70
2023/08/30 02:25:26;;;;;;;25.10;9.32;;;;;;;14.93;87.57;100776.09;6076057;19;20025;-70
2023/08/30 02:27:53;;;;;;;24.38;8.60;;;;;;;14.90;87.69;100773.59;6044090;19;20078;-69
2023/08/30 02:30:02;;;;;;;25.80;9.07;;;;;;;14.91;87.92;100775.31;6075923;19;20097;-69
2023/08/30 02:32:10;;;;;;;20.63;8.35;;;;;;;14.90;87.65;100769.19;6076651;19;20481;-70
2023/08/30 02:34:15;;;;;;;25.75;9.02;;;;;;;14.89;87.66;100775.41;6072876;19;20011;-70
2023/08/30 02:36:20;;;;;;;27.08;10.48;;;;;;;14.89;87.48;100767.47;6071681;19;20340;-69
2023/08/30 02:38:25;;;;;;;29.27;9.02;;;;;;;14.88;87.87;100771.06;6075066;19;20188;-69
2023/08/30 02:40:28;;;;;;;23.73;9.93;;;;;;;14.84;87.58;100764.25;6075876;19;20010;-69
2023/08/30 02:42:34;;;;;;;25.17;9.55;;;;;;;14.88;87.32;100765.78;6073062;19;20014;-69
2023/08/30 02:44:39;;;;;;;22.80;10.00;;;;;;;14.79;87.53;100762.81;6073169;19;20526;-69
2023/08/30 02:46:44;;;;;;;23.08;8.68;;;;;;;14.78;87.58;100759.31;6057719;19;20018;-69
2023/08/30 02:48:52;;;;;;;26.10;9.32;;;;;;;14.71;87.77;100753.53;6076100;19;20090;-68
2023/08/30 02:51:00;;;;;;;24.50;9.13;;;;;;;14.69;87.82;100744.84;6075254;19;20045;-68
2023/08/30 02:53:08;;;;;;;25.58;10.32;;;;;;;14.64;88.18;100748.69;6056452;19;20312;-68
2023/08/30 02:55:13;;;;;;;27.40;9.75;;;;;;;14.59;88.33;100742.84;6060883;19;20099;-68
2023/08/30 02:57:18;;;;;;;22.70;9.77;;;;;;;14.54;88.65;100744.91;6059755;19;20011;-68
2023/08/30 02:59:23;;;;;;;27.70;9.20;;;;;;;14.46;89.08;100735.59;6080725;19;20034;-68
2023/08/30 03:01:29;;;;;;;24.73;8.20;;;;;;;14.49;88.58;100731.91;6059043;19;20531;-68
2023/08/30 03:03:34;;;;;;;21.23;8.02;;;;;;;14.39;88.75;100728.94;6059181;19;20119;-70
2023/08/30 03:05:39;;;;;;;30.23;9.88;;;;;;;14.36;89.34;100717.72;6083130;19;20117;-68
2023/08/30 03:07:44;;;;;;;24.15;10.07;;;;;;;14.30;89.65;100720.69;6057037;19;20006;-70
2023/08/30 03:09:49;;;;;;;25.77;9.38;;;;;;;14.28;89.85;100712.88;6077035;19;20431;-67
2023/08/30 03:11:54;;;;;;;29.83;10.73;;;;;;;14.28;89.69;100708.44;6061450;19;20013;-68
2023/08/30 03:14:02;;;;;;;29.15;10.57;;;;;;;14.23;89.76;100702.56;6079762;19;20007;-69
2023/08/30 03:16:13;;;;;;;31.15;12.75;;;;;;;14.17;90.54;100705.56;6057956;19;20031;-68
2023/08/30 03:18:19;;;;;;;30.15;11.18;;;;;;;14.12;91.03;100704.97;6074193;19;20082;-68
2023/08/30 03:20:21;;;;;;;32.58;10.75;;;;;;;14.03;91.31;100698.44;6070735;19;20347;-68
2023/08/30 03:22:31;;;;;;;32.13;10.88;;;;;;;14.00;91.55;100695.94;6071567;19;20429;-68
2023/08/30 03:24:36;;;;;;;27.52;9.82;;;;;;;13.99;92.05;100694.25;6061463;19;20488;-68
2023/08/30 03:26:41;;;;;;;26.95;10.05;;;;;;;14.04;91.91;100692.19;6081715;19;20110;-68
2023/08/30 03:28:46;;;;;;;28.75;11.43;;;;;;;13.89;92.60;100692.22;6080072;19;20031;-68
2023/08/30 03:30:56;;;;;;;32.17;9.48;;;;;;;13.89;92.77;100687.78;6079347;19;20022;-68
2023/08/30 03:33:01;;;;;;;28.85;8.95;;;;;;;13.79;93.41;100684.81;6093418;19;20010;-69
2023/08/30 03:35:08;;;;;;;31.63;11.68;;;;;;;13.76;93.20;100689.41;6078314;19;20400;-69
2023/08/30 03:37:13;;;;;;;29.58;10.20;;;;;;;13.66;93.62;100690.88;6070454;19;20021;-69
2023/08/30 03:39:20;;;;;;;34.65;12.23;;;;;;;13.58;94.10;100676.28;6088938;19;20017;-70
2023/08/30 03:41:25;;;;;;;27.88;9.98;;;;;;;13.58;94.22;100678.09;6087450;19;20019;-68
2023/08/30 03:43:58;;;;;;;27.83;11.27;;;;;;;13.54;94.65;100676.56;6097870;19;20234;-68
2023/08/30 03:46:19;;;;;;;25.48;9.90;;;;;;;13.44;95.07;100673.56;6065649;19;20403;-68
2023/08/30 03:48:24;;;;;;;30.10;10.98;;;;;;;13.50;94.92;100667.09;6082533;19;20331;-68
2023/08/30 03:50:29;;;;;;;30.40;11.07;;;;;;;13.42;94.99;100664.88;6050242;19;19998;-68
2023/08/30 03:52:34;;;;;;;34.20;10.57;;;;;;;13.33;95.49;100662.78;6087979;19;20010;-69
2023/08/30 03:54:42;;;;;;;29.95;11.25;;;;;;;13.34;95.50;100672.38;6080438;19;20038;-69
2023/08/30 03:56:48;;;;;;;31.27;11.07;;;;;;;13.30;95.29;100669.06;6083181;19;20606;-69
2023/08/30 03:58:55;;;;;;;29.13;10.27;;;;;;;13.39;95.25;100671.19;6059376;19;20453;-69
2023/08/30 04:01:00;;;;;;;30.15;10.77;;;;;;;13.33;95.39;100674.16;6054544;19;20432;-70
2023/08/30 04:03:08;;;;;;;27.95;10.88;;;;;;;13.36;95.58;100670.50;6076959;19;20010;-69
2023/08/30 04:05:14;;;;;;;28.50;11.13;;;;;;;13.34;95.24;100664.47;6070221;19;20017;-70
2023/08/30 04:07:18;;;;;;;33.75;11.85;;;;;;;13.32;95.01;100667.19;6070999;19;20380;-67
2023/08/30 04:09:23;;;;;;;29.38;10.40;;;;;;;13.37;94.88;100664.28;6080575;19;20399;-68
2023/08/30 04:11:31;;;;;;;28.08;11.15;;;;;;;13.35;95.04;100668.81;6049750;19;20327;-69
2023/08/30 04:13:37;;;;;;;28.92;11.63;;;;;;;13.34;94.58;100659.19;6056835;19;20024;-69
2023/08/30 04:15:42;;;;;;;31.77;11.57;;;;;;;13.35;94.46;100650.34;6078033;19;20082;-68
2023/08/30 04:17:47;;;;;;;33.88;11.65;;;;;;;13.33;94.10;100646.94;6065868;19;20311;-68
2023/08/30 04:19:56;;;;;;;22.65;10.35;;;;;;;13.37;93.37;100648.44;6077235;19;20237;-68
2023/08/30 04:22:01;;;;;;;32.17;11.63;;;;;;;13.33;93.48;100639.00;6051452;19;20571;-69
2023/08/30 04:24:07;;;;;;;33.65;11.48;;;;;;;13.35;93.26;100639.78;6054193;19;20301;-69
2023/08/30 04:26:09;;;;;;;34.22;12.57;;;;;;;13.32;93.10;100640.81;6075809;19;20422;-68
2023/08/30 04:28:17;;;;;;;30.65;12.05;;;;;;;13.31;92.82;100630.31;6073207;19;20018;-68
2023/08/30 04:30:22;;;;;;;32.67;10.93;;;;;;;13.34;92.92;100628.34;6046809;19;20034;-68
2023/08/30 04:32:28;;;;;;;31.83;12.50;;;;;;;13.35;92.80;100631.88;6071172;19;20462;-68
2023/08/30 04:34:34;;;;;;;35.00;12.00;;;;;;;13.37;92.82;100633.47;6077330;19;20485;-70
2023/08/30 04:36:39;;;;;;;34.22;12.30;;;;;;;13.39;92.94;100636.03;6083707;19;20073;-68
2023/08/30 04:38:44;;;;;;;35.45;13.27;;;;;;;13.41;92.86;100626.25;6085362;19;20310;-68
2023/08/30 04:41:06;;;;;;;33.33;10.82;;;;;;;13.39;93.01;100622.81;6077188;19;20055;-69
2023/08/30 04:43:11;;;;;;;30.38;11.85;;;;;;;13.41;93.01;100620.97;6079003;19;20099;-68
2023/08/30 04:45:18;;;;;;;28.40;11.07;;;;;;;13.48;92.81;100618.81;6077756;19;20014;-68
2023/08/30 04:47:24;;;;;;;34.00;11.73;;;;;;;13.49;92.38;100629.31;6090946;19;20010;-68
2023/08/30 04:49:29;;;;;;;31.30;12.18;;;;;;;13.47;92.84;100630.31;6080642;19;20015;-68
2023/08/30 04:51:34;;;;;;;31.42;12.80;;;;;;;13.52;93.56;100637.03;6080302;19;20010;-69
2023/08/30 04:53:41;;;;;;;39.33;12.77;;;;;;;13.58;93.40;100634.03;6082732;19;20024;-69
2023/08/30 04:55:46;;;;;;;40.30;12.90;;;;;;;13.55;93.92;100641.31;6084398;19;20376;-68
2023/08/30 04:57:51;;;;;;;36.65;12.75;;;;;;;13.52;94.92;100641.47;6094013;19;20583;-69
2023/08/30 04:59:59;;;;;;;37.47;13.13;;;;;;;13.54;96.23;100647.53;6088171;19;20300;-68
2023/08/30 05:02:07;;;;;;;30.73;11.60;;;;;;;13.50;97.29;100649.47;6094155;19;20007;-69
2023/08/30 05:04:12;;;;;;;38.30;12.77;;;;;;;13.44;97.61;100649.81;6071501;19;20506;-68
2023/08/30 05:06:18;;;;;;;31.65;13.13;;;;;;;13.49;98.20;100650.41;6074787;19;20010;-68
2023/08/30 05:08:26;;;;;;;40.50;12.95;;;;;;;13.49;99.92;100653.06;6073263;19;20507;-68
2023/08/30 05:10:31;;;;;;;31.48;12.15;;;;;;;13.44;100.00;100648.97;6069272;19;20490;-68
2023/08/30 05:12:38;;;;;;;38.22;13.65;;;;;;;13.47;100.00;100635.59;6058137;19;20046;-69
2023/08/30 05:14:43;;;;;;;42.17;14.77;;;;;;;13.42;100.00;100641.13;6090575;19;20010;-69
2023/08/30 05:16:48;;;;;;;40.05;14.45;;;;;;;13.36;100.00;100637.03;6088037;19;21756;-73
2023/08/30 05:18:59;;;;;;;39.40;14.40;;;;;;;13.28;100.00;100630.50;6079598;19;20219;-68
2023/08/30 05:21:05;;;;;;;39.30;14.13;;;;;;;13.22;100.00;100638.69;6068611;19;20014;-68
2023/08/30 05:23:10;;;;;;;37.45;13.52;;;;;;;13.25;100.00;100635.91;6069995;19;20038;-68
2023/08/30 05:25:15;;;;;;;36.88;14.05;;;;;;;13.07;100.00;100630.69;6075778;19;20537;-68
2023/08/30 05:27:20;;;;;;;36.47;13.18;;;;;;;13.01;100.00;100628.41;6073056;19;20209;-68
2023/08/30 05:29:25;;;;;;;35.67;13.38;;;;;;;13.14;100.00;100629.44;6078306;19;20379;-69
2023/08/30 05:31:30;;;;;;;34.17;12.93;;;;;;;13.04;100.00;100628.22;6074591;19;20010;-69
2023/08/30 05:33:35;;;;;;;38.40;14.52;;;;;;;12.92;100.00;100627.09;6075477;19;20066;-68
2023/08/30 05:35:44;;;;;;;30.98;12.32;;;;;;;12.94;100.00;100625.22;6071839;19;20010;-66
2023/08/30 05:37:58;;;;;;;28.98;11.52;;;;;;;13.03;100.00;100623.03;6074352;19;20038;-68
2023/08/30 05:40:03;;;;;;;28.83;11.80;;;;;;;12.99;100.00;100616.22;6073972;19;20038;-68
2023/08/30 05:42:09;;;;;;;30.90;12.38;;;;;;;13.04;100.00;100619.47;6073179;19;20018;-66
2023/08/30 05:44:28;;;;;;;32.05;12.20;;;;;;;12.99;100.00;100621.50;6076142;19;21558;-67
2023/08/30 05:46:34;;;;;;;31.08;12.48;;;;;;;13.08;100.00;100621.00;6069616;19;20010;-67
2023/08/30 05:48:39;;;;;;;29.08;11.18;;;;;;;13.07;100.00;100614.03;6072071;19;20011;-67
2023/08/30 05:50:47;;;;;;;26.10;11.48;;;;;;;12.98;100.00;100610.09;6070862;19;20014;-66
2023/08/30 05:52:53;;;;;;;28.30;11.80;;;;;;;12.96;100.00;100606.69;6072222;19;20790;-66
2023/08/30 05:55:01;;;;;;;25.30;11.93;;;;;;;12.96;100.00;100606.69;6070705;19;20018;-66
2023/08/30 05:57:07;;;;;;;33.10;12.25;;;;;;;12.98;100.00;100599.56;6074134;19;20510;-67
2023/08/30 05:59:12;;;;;;;25.02;12.20;;;;;;;13.05;100.00;100598.25;6070284;19;20027;-67
2023/08/30 06:01:20;;;;;;;26.25;11.25;;;;;;;13.11;100.00;100595.31;6069503;19;20006;-68
2023/08/30 06:03:28;;;;;;;24.85;10.07;;;;;;;13.11;100.00;100594.44;6070572;19;20024;-68
2023/08/30 06:05:34;;;;;;;24.23;11.43;;;;;;;13.07;100.00;100592.91;6072305;19;20194;-67
2023/08/30 06:07:43;;;;;;;23.00;11.48;;;;;;;13.10;100.00;100593.59;6070607;19;20011;-68
2023/08/30 06:09:49;;;;;;;20.85;10.43;;;;;;;13.17;100.00;100589.69;6069079;19;20083;-65
2023/08/30 06:11:57;;;;;;;21.65;9.50;;;;;;;13.16;100.00;100590.63;6072445;19;20014;-66
2023/08/30 06:14:02;;;;;;;25.13;11.10;;;;;;;13.28;100.00;100583.00;6072395;19;20046;-66
2023/08/30 06:16:08;;;;;;;23.02;10.50;;;;;;;13.24;100.00;100578.78;6076669;19;20006;-67
2023/08/30 06:18:11;;;;;;;18.50;8.95;;;;;;;13.20;100.00;100585.19;6076597;19;20442;-65
2023/08/30 06:20:16;;;;;;;19.08;8.75;;;;;;;13.27;100.00;100578.63;6069291;19;20010;-68
2023/08/30 06:22:21;;;;;;;21.25;10.50;;;;;;;13.21;100.00;100579.81;6075174;19;20482;-68
2023/08/30 06:24:29;;;;;;;19.95;8.98;;;;;;;13.22;100.00;100565.69;6083765;19;20434;-66
2023/08/30 06:26:36;;;;;;;17.88;8.35;;;;;;;13.25;100.00;100569.94;6051138;19;20066;-66
2023/08/30 06:28:41;;;;;;;17.77;9.50;;;;;;;13.23;100.00;100571.81;6061326;19;20023;-69
2023/08/30 06:30:49;;;;;;;15.70;6.80;;;;;;;13.18;100.00;100572.06;6058247;19;20010;-68
2023/08/30 06:32:56;;;;;;;18.23;8.23;;;;;;;13.13;100.00;100572.31;6047418;19;20028;-66
2023/08/30 06:35:02;;;;;;;15.73;7.68;;;;;;;13.16;100.00;100569.53;6091029;19;20565;-67
2023/08/30 06:37:13;;;;;;;21.50;9.10;;;;;;;13.18;100.00;100567.63;6084464;19;20539;-68
2023/08/30 06:39:20;;;;;;;16.42;9.07;;;;;;;13.18;100.00;100567.63;6079148;19;20288;-68
2023/08/30 06:41:28;;;;;;;18.08;7.75;;;;;;;13.20;100.00;100564.91;6089080;19;20567;-67
2023/08/30 06:43:35;;;;;;;15.65;8.85;;;;;;;13.21;100.00;100563.97;6077898;19;20014;-67
2023/08/30 06:45:40;;;;;;;14.50;6.93;;;;;;;13.32;100.00;100566.91;6083290;19;20010;-66
2023/08/30 06:47:47;;;;;;;15.10;7.53;;;;;;;13.30;100.00;100546.81;6085945;19;20010;-66
2023/08/30 06:49:52;;;;;;;15.75;8.18;;;;;;;13.32;100.00;100550.19;6061963;19;20071;-66
2023/08/30 06:52:01;;;;;;;16.38;7.88;;;;;;;13.30;100.00;100552.09;6071289;19;20276;-66
2023/08/30 06:54:07;;;;;;;15.48;7.93;;;;;;;13.33;100.00;100552.78;6072089;19;20524;-66
2023/08/30 06:56:11;;;;;;;16.85;7.97;;;;;;;13.34;100.00;100546.53;6081638;19;20431;-66
2023/08/30 06:58:20;;;;;;;14.07;8.15;;;;;;;13.33;100.00;100551.94;6082161;19;20122;-66
2023/08/30 07:00:25;;;;;;;14.35;7.80;;;;;;;13.33;100.00;100547.50;6080771;19;20047;-67
2023/08/30 07:02:31;;;;;;;15.10;7.15;;;;;;;13.25;100.00;100540.94;6080014;19;20020;-66
2023/08/30 07:04:36;;;;;;;15.73;8.63;;;;;;;13.34;100.00;100540.41;6072106;19;20175;-66
2023/08/30 07:06:41;;;;;;;16.27;8.13;;;;;;;13.31;100.00;100530.88;6068592;19;20099;-66
2023/08/30 07:08:46;;;;;;;17.08;7.80;;;;;;;13.40;100.00;100537.41;6076581;19;20007;-66
2023/08/30 07:10:51;;;;;;;16.67;8.35;;;;;;;13.43;100.00;100529.34;6081218;19;20053;-66
2023/08/30 07:12:56;;;;;;;17.73;7.95;;;;;;;13.46;100.00;100526.53;6075590;19;20576;-65
2023/08/30 07:15:05;;;;;;;15.02;8.20;;;;;;;13.55;100.00;100525.13;6081113;19;20031;-65
2023/08/30 07:17:10;;;;;;;14.77;7.78;;;;;;;13.48;100.00;100529.06;6067556;19;20010;-66
2023/08/30 07:19:15;;;;;;;14.07;8.00;;;;;;;13.56;100.00;100522.44;6070002;19;20483;-66
2023/08/30 07:21:20;;;;;;;14.10;7.40;;;;;;;13.58;100.00;100522.31;6047523;19;20185;-67
2023/08/30 07:23:25;;;;;;;13.13;7.38;;;;;;;13.52;100.00;100523.53;6054325;19;20072;-67
2023/08/30 07:25:29;;;;;;;13.60;7.88;;;;;;;13.65;100.00;100525.47;6074241;19;20183;-65
2023/08/30 07:27:34;;;;;;;12.10;6.93;;;;;;;13.69;100.00;100519.03;6087099;19;20013;-67
2023/08/30 07:29:40;;;;;;;12.18;6.47;;;;;;;13.72;100.00;100511.81;6077069;19;20030;-67
2023/08/30 07:31:53;;;;;;;11.50;6.63;;;;;;;13.80;100.00;100511.38;6078118;19;20287;-65
2023/08/30 07:33:59;;;;;;;12.30;7.25;;;;;;;13.91;100.00;100514.22;6069548;19;20021;-65
2023/08/30 07:36:05;;;;;;;15.18;6.60;;;;;;;13.77;100.00;100514.16;6069516;19;20013;-66
2023/08/30 07:38:10;;;;;;;14.77;7.10;;;;;;;13.79;100.00;100509.66;6076741;19;20653;-67
2023/08/30 07:40:15;;;;;;;12.82;7.00;;;;;;;13.90;100.00;100509.00;6073214;19;20057;-67
2023/08/30 07:42:20;;;;;;;12.82;6.85;;;;;;;13.71;100.00;100511.91;6080801;19;20287;-65
2023/08/30 07:44:25;;;;;;;14.63;6.18;;;;;;;13.71;100.00;100509.25;6073891;19;20027;-65
2023/08/30 07:46:28;;;;;;;12.30;6.85;;;;;;;13.75;100.00;100502.88;6074591;19;20215;-66
2023/08/30 07:48:37;;;;;;;13.05;6.03;;;;;;;13.76;100.00;100496.63;6071212;19;20027;-66
2023/08/30 07:50:42;;;;;;;13.48;6.38;;;;;;;13.81;100.00;100497.22;6078483;19;20031;-67
2023/08/30 07:52:45;;;;;;;10.52;6.57;;;;;;;13.87;100.00;100488.91;6072254;19;20010;-66
2023/08/30 07:54:50;;;;;;;11.00;6.20;;;;;;;13.88;100.00;100495.06;6068677;19;20046;-65
2023/08/30 07:56:56;;;;;;;11.35;5.47;;;;;;;13.88;100.00;100495.91;6070756;19;20327;-67
2023/08/30 07:59:01;;;;;;;12.80;6.68;;;;;;;14.03;100.00;100505.56;6071837;19;20525;-67
2023/08/30 08:01:07;;;;;;;13.63;6.30;;;;;;;14.05;100.00;100508.09;6069676;19;20014;-67
2023/08/30 08:03:12;;;;;;;11.80;6.38;;;;;;;14.07;100.00;100505.38;6067121;19;20116;-67
2023/08/30 08:05:20;;;;;;;12.95;7.07;;;;;;;14.00;100.00;100499.59;6071891;19;20382;-67
2023/08/30 08:07:28;;;;;;;13.00;6.75;;;;;;;14.11;100.00;100506.88;6073198;19;20360;-66
2023/08/30 08:09:34;;;;;;;12.82;6.88;;;;;;;14.17;100.00;100498.59;6070449;19;20561;-67
2023/08/30 08:11:43;;;;;;;12.70;7.03;;;;;;;14.13;100.00;100503.19;6071256;19;20027;-67
2023/08/30 08:13:48;;;;;;;15.43;7.68;;;;;;;14.18;100.00;100508.22;6071437;19;20050;-67
2023/08/30 08:15:53;;;;;;;13.52;7.07;;;;;;;14.19;100.00;100505.47;6072517;19;20024;-67
2023/08/30 08:18:01;;;;;;;14.15;7.70;;;;;;;14.34;100.00;100511.59;6076217;19;20327;-67
2023/08/30 08:20:08;;;;;;;15.43;7.60;;;;;;;14.44;100.00;100506.63;6078472;19;20038;-67
2023/08/30 08:22:15;;;;;;;15.00;7.57;;;;;;;14.63;100.00;100501.91;6081802;19;20261;-67
2023/08/30 08:24:18;;;;;;;13.70;7.75;;;;;;;14.81;100.00;100506.97;6079376;19;20018;-64
2023/08/30 08:26:25;;;;;;;15.27;8.43;;;;;;;14.89;100.00;100507.34;6084755;19;20070;-68
2023/08/30 08:28:30;;;;;;;16.80;9.02;;;;;;;14.88;100.00;100509.13;6094060;19;20006;-66
2023/08/30 08:30:37;;;;;;;14.98;8.95;;;;;;;15.02;100.00;100500.31;6076480;19;20401;-69
2023/08/30 08:32:39;;;;;;;14.27;8.20;;;;;;;15.01;100.00;100497.75;6082224;19;20013;-66
2023/08/30 08:34:44;;;;;;;15.98;9.18;;;;;;;15.18;100.00;100501.97;6080039;19;20499;-67
2023/08/30 08:36:50;;;;;;;15.52;9.32;;;;;;;15.35;100.00;100507.88;6089897;19;20057;-67
2023/08/30 08:38:58;;;;;;;15.75;8.55;;;;;;;15.61;100.00;100501.78;6086767;19;20094;-67
2023/08/30 08:41:06;;;;;;;16.00;9.57;;;;;;;16.09;100.00;100502.06;6075366;19;20014;-65
2023/08/30 08:43:13;;;;;;;16.55;8.68;;;;;;;16.59;100.00;100495.91;6084099;19;20613;-66
2023/08/30 08:45:21;;;;;;;15.93;9.05;;;;;;;17.18;100.00;100502.31;6086981;19;20185;-68
2023/08/30 08:47:30;;;;;;;16.45;9.27;;;;;;;17.51;100.00;100505.13;6086755;19;20525;-66
2023/08/30 08:49:35;;;;;;;11.77;7.65;;;;;;;17.31;100.00;100503.13;6085820;19;20070;-66
2023/08/30 08:51:41;;;;;;;10.00;6.45;;;;;;;17.09;100.00;100512.66;6085391;19;20014;-64
2023/08/30 08:53:47;;;;;;;11.07;5.97;;;;;;;17.09;100.00;100506.50;6069004;19;20490;-66
2023/08/30 08:55:56;;;;;;;11.00;4.50;;;;;;;16.38;100.00;100521.28;6077086;19;20734;-67
2023/08/30 08:58:01;;;;;;;10.90;4.50;;;;;;;16.33;100.00;100526.06;6075509;19;20097;-68
2023/08/30 09:00:08;;;;;;;7.07;4.35;;;;;;;16.55;100.00;100520.09;6064547;19;20030;-69
2023/08/30 09:02:16;;;;;;;8.45;4.18;;;;;;;17.10;100.00;100524.97;6080652;19;20014;-67
2023/08/30 09:04:22;;;;;;;10.30;3.97;;;;;;;16.94;100.00;100526.19;6086533;19;20010;-66
2023/08/30 09:06:28;;;;;;;9.57;3.28;;;;;;;16.86;100.00;100524.94;6089967;19;20007;-66
2023/08/30 09:08:36;;;;;;;8.90;3.53;;;;;;;16.52;100.00;100533.56;6075148;19;20030;-66
2023/08/30 09:10:42;;;;;;;13.98;3.88;;;;;;;16.28;100.00;100534.31;6071696;19;20292;-67
2023/08/30 09:12:50;;;;;;;8.65;3.55;;;;;;;16.24;98.81;100527.53;6078142;19;20446;-66
2023/08/30 09:14:59;;;;;;;9.40;3.70;;;;;;;17.03;97.79;100523.72;6073382;19;20403;-66
2023/08/30 09:17:05;;;;;;;6.25;2.90;;;;;;;17.22;96.65;100530.34;6077023;19;20026;-66
2023/08/30 09:19:10;;;;;;;8.25;3.38;;;;;;;17.36;94.87;100532.84;6082161;19;20014;-66
2023/08/30 09:21:20;;;;;;;8.68;3.40;;;;;;;17.48;94.97;100539.91;6079209;19;20298;-67
2023/08/30 09:23:25;;;;;;;8.32;2.92;;;;;;;17.85;90.75;100531.88;6083981;19;20561;-66
2023/08/30 09:25:31;;;;;;;8.30;3.90;;;;;;;17.63;88.61;100537.06;6093490;19;20322;-67
2023/08/30 09:27:36;;;;;;;10.38;2.90;;;;;;;17.90;88.63;100537.66;6092723;19;19998;-67
2023/08/30 09:29:44;;;;;;;6.30;2.53;;;;;;;17.77;85.88;100534.19;6091515;19;20010;-66
2023/08/30 09:31:54;;;;;;;7.55;3.30;;;;;;;17.81;83.84;100535.69;6080910;19;20438;-66
2023/08/30 09:34:01;;;;;;;8.38;3.03;;;;;;;17.60;86.35;100530.16;6079141;19;20002;-66
2023/08/30 09:36:13;;;;;;;7.55;2.95;;;;;;;17.44;85.32;100533.13;6083890;19;20014;-68
2023/08/30 09:38:21;;;;;;;5.95;3.05;;;;;;;17.35;84.29;100547.06;6089836;19;20195;-66